createdAt,value
2018-06-29T00:00:09.342Z,0.50
2018-06-29T00:02:38.220Z,0.60
2018-06-29T00:05:07.752Z,0.63
2018-06-29T00:07:36.611Z,0.83
2018-06-29T00:10:06.433Z,0.67
2018-06-29T00:12:35.197Z,1.03
2018-06-29T00:15:04.368Z,0.40
2018-06-29T00:17:33.220Z,1.10
2018-06-29T00:20:02.054Z,0.83
2018-06-29T00:22:31.618Z,0.70
2018-06-29T00:25:00.543Z,0.57
2018-06-29T00:27:29.371Z,0.80
2018-06-29T00:29:58.183Z,0.87
2018-06-29T00:32:27.722Z,0.80
2018-06-29T00:34:56.569Z,0.57
2018-06-29T00:37:25.415Z,0.80
2018-06-29T00:39:54.398Z,0.87
2018-06-29T00:42:23.247Z,1.20
2018-06-29T00:44:51.953Z,1.00
2018-06-29T00:47:20.826Z,0.90
2018-06-29T00:49:49.571Z,0.77
2018-06-29T00:52:18.439Z,0.87
2018-06-29T00:54:47.275Z,0.60
2018-06-29T00:57:16.130Z,0.70
2018-06-29T00:59:45.036Z,0.70
2018-06-29T01:02:13.910Z,0.83
2018-06-29T01:04:42.748Z,0.87
2018-06-29T01:07:11.575Z,0.80
2018-06-29T01:09:40.399Z,0.97
2018-06-29T01:12:09.270Z,0.90
2018-06-29T01:14:38.128Z,0.90
2018-06-29T01:17:07.023Z,0.90
2018-06-29T01:19:35.851Z,0.70
2018-06-29T01:22:04.808Z,1.10
2018-06-29T01:24:33.680Z,0.70
2018-06-29T01:27:02.546Z,0.80
2018-06-29T01:29:31.559Z,0.60
2018-06-29T01:32:00.384Z,0.70
2018-06-29T01:34:29.355Z,1.00
2018-06-29T01:36:58.203Z,0.80
2018-06-29T01:39:27.047Z,0.70
2018-06-29T01:41:55.899Z,0.73
2018-06-29T01:44:24.613Z,0.70
2018-06-29T01:46:53.495Z,0.70
2018-06-29T01:49:22.189Z,0.60
2018-06-29T01:51:50.992Z,0.70
2018-06-29T01:54:19.860Z,0.77
2018-06-29T01:56:48.686Z,0.60
2018-06-29T01:59:17.531Z,0.60
2018-06-29T02:01:46.402Z,0.60
2018-06-29T02:04:15.195Z,0.83
2018-06-29T02:06:44.099Z,0.60
2018-06-29T02:09:12.934Z,0.80
2018-06-29T02:11:41.838Z,0.70
2018-06-29T02:14:10.661Z,0.60
2018-06-29T02:16:39.462Z,0.60
2018-06-29T02:19:08.287Z,0.90
2018-06-29T02:21:37.153Z,0.70
2018-06-29T02:24:06.051Z,0.80
2018-06-29T02:26:34.946Z,0.90
2018-06-29T02:29:03.807Z,0.90
2018-06-29T02:31:32.665Z,0.80
2018-06-29T02:34:01.495Z,0.90
2018-06-29T02:36:30.432Z,0.77
2018-06-29T02:38:59.292Z,0.90
2018-06-29T02:41:28.130Z,1.10
2018-06-29T02:43:56.870Z,0.80
2018-06-29T02:46:25.743Z,0.90
2018-06-29T02:48:54.687Z,0.73
2018-06-29T02:51:23.523Z,0.90
2018-06-29T02:53:52.454Z,0.80
2018-06-29T02:56:21.283Z,0.80
2018-06-29T02:58:50.029Z,1.00
2018-06-29T03:01:18.987Z,1.03
2018-06-29T03:03:47.814Z,0.70
2018-06-29T03:06:16.639Z,0.80
2018-06-29T03:08:45.375Z,0.97
2018-06-29T03:11:14.203Z,0.70
2018-06-29T03:13:43.036Z,0.60
2018-06-29T03:16:11.858Z,0.80
2018-06-29T03:18:40.732Z,1.13
2018-06-29T03:21:09.565Z,0.90
2018-06-29T03:23:38.434Z,1.20
2018-06-29T03:26:07.332Z,0.70
2018-06-29T03:28:36.140Z,0.77
2018-06-29T03:31:04.970Z,1.23
2018-06-29T03:33:33.835Z,1.03
2018-06-29T03:36:02.552Z,0.90
2018-06-29T03:38:31.387Z,0.83
2018-06-29T03:41:00.260Z,0.80
2018-06-29T03:43:29.991Z,0.87
2018-06-29T03:45:58.930Z,0.60
2018-06-29T03:48:27.768Z,0.90
2018-06-29T03:50:56.599Z,0.70
2018-06-29T03:53:25.451Z,1.10
2018-06-29T03:55:54.345Z,0.97
2018-06-29T03:58:23.239Z,0.70
2018-06-29T04:00:51.974Z,0.90
2018-06-29T04:03:21.807Z,0.90
2018-06-29T04:05:50.837Z,1.03
2018-06-29T04:08:19.605Z,1.00
2018-06-29T04:10:48.435Z,1.00
2018-06-29T04:13:17.303Z,0.83
2018-06-29T04:15:46.022Z,0.77
2018-06-29T04:18:14.827Z,0.90
2018-06-29T04:20:43.619Z,0.60
2018-06-29T04:23:12.539Z,1.47
2018-06-29T04:25:41.330Z,0.90
2018-06-29T04:28:10.085Z,1.07
2018-06-29T04:30:39.228Z,0.90
2018-06-29T04:33:07.966Z,0.80
2018-06-29T04:35:36.808Z,0.80
2018-06-29T04:38:05.624Z,0.80
2018-06-29T04:40:34.486Z,0.80
2018-06-29T04:43:03.218Z,0.80
2018-06-29T04:45:32.091Z,0.80
2018-06-29T04:48:00.947Z,0.80
2018-06-29T04:50:29.928Z,0.90
2018-06-29T04:52:59.598Z,1.00
2018-06-29T04:55:28.479Z,0.93
2018-06-29T04:57:58.133Z,0.87
2018-06-29T05:00:27.479Z,0.50
2018-06-29T05:02:56.297Z,0.80
2018-06-29T05:05:26.001Z,0.90
2018-06-29T05:07:54.887Z,0.70
2018-06-29T05:10:24.016Z,0.90
2018-06-29T05:12:52.882Z,0.73
2018-06-29T05:15:21.764Z,0.70
2018-06-29T05:17:51.395Z,0.80
2018-06-29T05:20:20.785Z,1.20
2018-06-29T05:22:49.964Z,0.97
2018-06-29T05:25:18.856Z,1.53
2018-06-29T05:27:47.731Z,0.83
2018-06-29T05:30:19.566Z,1.10
2018-06-29T05:32:48.480Z,1.00
2018-06-29T05:35:17.391Z,1.30
2018-06-29T05:37:46.275Z,1.20
2018-06-29T05:40:15.186Z,0.90
2018-06-29T05:42:44.060Z,1.13
2018-06-29T05:45:13.183Z,0.90
2018-06-29T05:47:42.165Z,0.73
2018-06-29T05:50:11.044Z,0.97
2018-06-29T05:52:39.917Z,0.90
2018-06-29T05:55:09.176Z,0.50
2018-06-29T05:57:38.252Z,1.07
2018-06-29T06:00:07.414Z,0.90
2018-06-29T06:02:36.245Z,1.30
2018-06-29T06:05:05.348Z,1.30
2018-06-29T06:07:34.195Z,0.87
2018-06-29T06:10:03.206Z,0.90
2018-06-29T06:12:32.070Z,1.10
2018-06-29T06:15:00.943Z,1.43
2018-06-29T06:17:30.173Z,0.90
2018-06-29T06:20:09.635Z,1.10
2018-06-29T06:22:38.556Z,0.80
2018-06-29T06:25:07.635Z,0.80
2018-06-29T06:27:36.909Z,1.10
2018-06-29T06:30:06.171Z,0.93
2018-06-29T06:32:35.635Z,1.70
2018-06-29T06:35:05.121Z,1.20
2018-06-29T06:37:34.076Z,1.20
2018-06-29T06:40:02.982Z,1.07
2018-06-29T06:42:31.872Z,0.83
2018-06-29T06:45:00.748Z,1.13
2018-06-29T06:47:29.599Z,0.93
2018-06-29T06:49:58.684Z,0.83
2018-06-29T06:52:27.667Z,0.67
2018-06-29T06:54:56.555Z,1.00
2018-06-29T06:57:25.671Z,0.90
2018-06-29T06:59:55.036Z,0.90
2018-06-29T07:02:23.991Z,1.13
2018-06-29T07:04:52.722Z,0.90
2018-06-29T07:07:21.612Z,1.00
2018-06-29T07:09:50.440Z,1.30
2018-06-29T07:12:19.290Z,1.10
2018-06-29T07:14:48.126Z,1.30
2018-06-29T07:17:16.942Z,1.03
2018-06-29T07:19:46.482Z,0.80
2018-06-29T07:22:21.175Z,1.17
2018-06-29T07:24:50.053Z,1.00
2018-06-29T07:27:18.845Z,1.20
2018-06-29T07:29:47.791Z,1.17
2018-06-29T07:32:16.946Z,1.07
2018-06-29T07:34:46.427Z,0.93
2018-06-29T07:37:15.312Z,1.20
2018-06-29T07:39:44.223Z,1.80
2018-06-29T07:42:13.142Z,1.07
2018-06-29T07:44:42.012Z,1.20
2018-06-29T07:47:10.928Z,1.03
2018-06-29T07:49:39.792Z,1.23
2018-06-29T07:52:08.860Z,1.30
2018-06-29T07:54:37.735Z,1.57
2018-06-29T07:57:13.423Z,1.67
2018-06-29T07:59:42.252Z,1.43
2018-06-29T08:02:11.244Z,1.97
2018-06-29T08:04:40.100Z,2.07
2018-06-29T08:07:09.101Z,1.50
2018-06-29T08:09:38.012Z,2.10
2018-06-29T08:12:06.973Z,1.80
2018-06-29T08:14:35.900Z,2.00
2018-06-29T08:17:04.859Z,1.50
2018-06-29T08:19:33.735Z,1.50
2018-06-29T08:22:03.831Z,1.80
2018-06-29T08:24:33.056Z,1.83
2018-06-29T08:27:01.943Z,1.57
2018-06-29T08:29:30.675Z,1.73
2018-06-29T08:31:59.700Z,1.90
2018-06-29T08:34:28.564Z,2.00
2018-06-29T08:36:57.488Z,1.70
2018-06-29T08:39:26.356Z,1.70
2018-06-29T08:41:55.424Z,1.47
2018-06-29T08:44:24.296Z,1.50
2018-06-29T08:46:53.241Z,1.60
2018-06-29T08:49:22.152Z,1.20
2018-06-29T08:51:51.183Z,1.10
2018-06-29T08:54:20.070Z,1.57
2018-06-29T08:56:48.964Z,1.90
2018-06-29T08:59:17.837Z,1.70
2018-06-29T09:01:46.755Z,1.70
2018-06-29T09:04:15.680Z,1.80
2018-06-29T09:06:44.571Z,2.33
2018-06-29T09:09:13.427Z,1.83
2018-06-29T09:11:42.306Z,2.90
2018-06-29T09:14:11.134Z,2.40
2018-06-29T09:16:40.027Z,2.67
2018-06-29T09:19:08.951Z,3.67
2018-06-29T09:21:38.335Z,2.20
2018-06-29T09:24:07.266Z,2.93
2018-06-29T09:26:36.143Z,3.40
2018-06-29T09:29:05.072Z,4.00
2018-06-29T09:31:33.928Z,3.33
2018-06-29T09:34:02.810Z,4.47
2018-06-29T09:36:31.656Z,4.43
2018-06-29T09:39:00.494Z,4.50
2018-06-29T09:41:29.342Z,3.53
2018-06-29T09:43:58.803Z,3.83
2018-06-29T09:46:27.831Z,3.73
2018-06-29T09:48:56.712Z,4.53
2018-06-29T09:51:25.596Z,4.03
2018-06-29T09:53:54.510Z,3.87
2018-06-29T09:56:23.454Z,3.70
2018-06-29T09:58:54.016Z,3.80
2018-06-29T10:01:23.092Z,3.80
2018-06-29T10:03:52.440Z,4.00
2018-06-29T10:06:21.494Z,4.50
2018-06-29T10:08:50.340Z,3.87
2018-06-29T10:11:19.205Z,4.70
2018-06-29T10:13:48.263Z,4.83
2018-06-29T10:16:17.167Z,4.30
2018-06-29T10:18:46.088Z,4.63
2018-06-29T10:21:14.952Z,4.10
2018-06-29T10:23:43.915Z,4.70
2018-06-29T10:26:12.731Z,5.50
2018-06-29T10:28:41.576Z,4.50
2018-06-29T10:31:10.433Z,5.40
2018-06-29T10:33:39.285Z,5.47
2018-06-29T10:36:08.144Z,6.67
2018-06-29T10:38:37.009Z,5.20
2018-06-29T10:41:05.893Z,5.30
2018-06-29T10:43:34.909Z,6.80
2018-06-29T10:46:04.183Z,6.10
2018-06-29T10:48:33.051Z,6.80
2018-06-29T10:51:01.856Z,4.93
2018-06-29T10:53:30.686Z,4.97
2018-06-29T10:55:59.547Z,5.90
2018-06-29T10:58:28.419Z,6.10
2018-06-29T11:00:57.259Z,5.43
2018-06-29T11:03:26.198Z,6.17
2018-06-29T11:05:55.047Z,7.00
2018-06-29T11:08:23.871Z,6.80
2018-06-29T11:10:52.727Z,7.03
2018-06-29T11:14:46.128Z,7.03
2018-06-29T11:17:14.996Z,7.33
2018-06-29T11:19:43.838Z,7.87
2018-06-29T11:22:12.790Z,7.53
2018-06-29T11:24:41.623Z,6.97
2018-06-29T11:27:10.470Z,7.70
2018-06-29T11:29:39.285Z,8.50
2018-06-29T11:32:08.782Z,8.13
2018-06-29T11:34:37.663Z,7.13
2018-06-29T11:37:06.568Z,7.70
2018-06-29T11:39:35.403Z,7.13
2018-06-29T11:42:04.198Z,7.50
2018-06-29T11:44:33.107Z,8.47
2018-06-29T11:47:01.981Z,7.60
2018-06-29T11:49:30.823Z,6.93
2018-06-29T11:51:59.700Z,7.77
2018-06-29T11:54:28.513Z,8.30
2018-06-29T11:56:57.396Z,7.37
2018-06-29T11:59:26.251Z,6.87
2018-06-29T12:01:58.096Z,7.50
2018-06-29T12:04:26.927Z,7.73
2018-06-29T12:06:55.785Z,8.00
2018-06-29T12:09:24.685Z,8.17
2018-06-29T12:11:53.595Z,7.00
2018-06-29T12:14:22.540Z,6.67
2018-06-29T12:16:52.103Z,7.70
2018-06-29T12:19:20.954Z,7.63
2018-06-29T12:21:49.855Z,6.97
2018-06-29T12:24:18.677Z,8.30
2018-06-29T12:26:47.547Z,8.33
2018-06-29T12:29:16.472Z,12.57
2018-06-29T12:31:45.391Z,8.50
2018-06-29T12:34:14.240Z,8.07
2018-06-29T12:36:43.079Z,8.10
2018-06-29T12:39:11.883Z,8.67
2018-06-29T12:41:40.795Z,8.10
2018-06-29T12:44:09.724Z,10.03
2018-06-29T12:46:38.584Z,8.30
2018-06-29T12:49:07.436Z,9.03
2018-06-29T12:51:36.294Z,8.80
2018-06-29T12:54:05.423Z,8.93
2018-06-29T12:56:34.240Z,9.00
2018-06-29T12:59:03.184Z,9.70
2018-06-29T13:01:32.677Z,8.50
2018-06-29T13:04:02.715Z,9.20
2018-06-29T13:06:31.677Z,9.00
2018-06-29T13:09:01.161Z,8.03
2018-06-29T13:11:30.055Z,9.40
2018-06-29T13:13:59.951Z,9.60
2018-06-29T13:16:28.811Z,9.30
2018-06-29T13:18:58.059Z,8.87
2018-06-29T13:21:29.873Z,8.50
2018-06-29T13:23:58.770Z,8.90
2018-06-29T13:26:27.664Z,9.47
2018-06-29T13:28:56.582Z,8.50
2018-06-29T13:31:25.436Z,9.47
2018-06-29T13:33:54.300Z,9.53
2018-06-29T13:36:23.765Z,10.17
2018-06-29T13:38:52.677Z,10.00
2018-06-29T13:41:21.938Z,10.77
2018-06-29T13:43:50.856Z,10.30
2018-06-29T13:46:19.833Z,10.47
2018-06-29T13:48:49.039Z,10.60
2018-06-29T13:51:18.391Z,10.23
2018-06-29T13:53:47.471Z,10.23
2018-06-29T13:56:16.793Z,11.17
2018-06-29T13:58:45.659Z,9.60
2018-06-29T14:01:15.131Z,12.70
2018-06-29T14:03:44.032Z,10.80
2018-06-29T14:06:12.879Z,9.80
2018-06-29T14:08:41.742Z,9.60
2018-06-29T14:11:10.491Z,9.50
2018-06-29T14:13:39.367Z,9.47
2018-06-29T14:16:08.301Z,10.33
2018-06-29T14:18:37.034Z,9.67
2018-06-29T14:21:06.051Z,10.03
2018-06-29T14:23:35.264Z,9.50
2018-06-29T14:26:04.451Z,12.83
2018-06-29T14:28:34.479Z,14.10
2018-06-29T14:31:03.785Z,9.57
2018-06-29T14:33:32.930Z,16.37
2018-06-29T14:36:01.837Z,59.07
2018-06-29T14:38:31.044Z,19.77
2018-06-29T14:40:59.945Z,20.83
2018-06-29T14:43:29.380Z,19.20
2018-06-29T14:45:58.526Z,11.80
2018-06-29T14:48:27.702Z,8.93
2018-06-29T14:50:56.787Z,9.67
2018-06-29T14:53:25.829Z,9.77
2018-06-29T14:55:55.008Z,9.30
2018-06-29T14:58:24.045Z,9.33
2018-06-29T15:00:53.120Z,9.63
2018-06-29T15:03:22.103Z,8.77
2018-06-29T15:05:51.309Z,9.60
2018-06-29T15:08:20.240Z,10.80
2018-06-29T15:11:02.275Z,10.60
2018-06-29T15:14:06.512Z,9.00
2018-06-29T15:16:52.259Z,10.57
2018-06-29T15:19:35.069Z,9.87
2018-06-29T15:22:09.737Z,10.07
2018-06-29T15:24:38.859Z,8.97
2018-06-29T15:27:07.897Z,9.23
2018-06-29T15:29:39.141Z,9.90
2018-06-29T15:32:08.065Z,9.60
2018-06-29T15:34:37.114Z,8.43
2018-06-29T15:37:06.291Z,10.53
2018-06-29T15:39:38.699Z,8.93
2018-06-29T15:42:11.670Z,18.80
2018-06-29T15:44:40.841Z,10.73
2018-06-29T15:47:09.852Z,9.63
2018-06-29T15:49:38.898Z,9.70
2018-06-29T15:52:07.842Z,9.83
2018-06-29T15:54:37.435Z,10.07
2018-06-29T15:57:06.686Z,10.40
2018-06-29T15:59:35.493Z,9.90
2018-06-29T16:02:04.630Z,9.30
2018-06-29T16:04:33.505Z,9.50
2018-06-29T16:07:02.359Z,9.63
2018-06-29T16:09:31.564Z,9.40
2018-06-29T16:12:00.757Z,9.93
2018-06-29T16:14:29.669Z,10.67
2018-06-29T16:16:58.643Z,9.47
2018-06-29T16:19:27.560Z,9.43
2018-06-29T16:21:56.463Z,13.43
2018-06-29T16:24:25.358Z,9.50
2018-06-29T16:26:54.212Z,9.50
2018-06-29T16:29:23.140Z,9.63
2018-06-29T16:31:52.012Z,9.27
2018-06-29T16:34:21.257Z,9.73
2018-06-29T16:36:50.811Z,11.80
2018-06-29T16:39:20.071Z,9.53
2018-06-29T16:41:49.196Z,9.03
2018-06-29T16:44:18.420Z,9.10
2018-06-29T16:46:47.325Z,11.90
2018-06-29T16:49:16.649Z,10.80
2018-06-29T16:51:45.923Z,10.73
2018-06-29T16:54:14.784Z,12.30
2018-06-29T16:56:43.696Z,10.40
2018-06-29T16:59:12.566Z,10.50
2018-06-29T17:01:41.435Z,10.70
2018-06-29T17:04:10.642Z,14.60
2018-06-29T17:06:39.527Z,10.27
2018-06-29T17:09:09.251Z,9.57
2018-06-29T17:11:38.324Z,9.63
2018-06-29T17:14:07.227Z,10.90
2018-06-29T17:16:36.144Z,9.20
2018-06-29T17:19:05.186Z,9.40
2018-06-29T17:21:34.051Z,9.63
2018-06-29T17:24:02.996Z,11.00
2018-06-29T17:26:31.873Z,10.40
2018-06-29T17:29:00.895Z,14.40
2018-06-29T17:31:29.743Z,9.53
2018-06-29T17:33:58.617Z,9.33
2018-06-29T17:36:27.474Z,14.37
2018-06-29T17:38:56.371Z,11.30
2018-06-29T17:41:25.488Z,9.63
2018-06-29T17:43:55.175Z,9.00
2018-06-29T17:46:24.344Z,10.63
2018-06-29T17:48:53.147Z,14.53
2018-06-29T17:51:22.072Z,11.57
2018-06-29T17:53:50.878Z,30.63
2018-06-29T17:56:19.704Z,10.70
2018-06-29T17:58:48.627Z,10.30
2018-06-29T18:01:17.740Z,9.03
2018-06-29T18:03:46.672Z,9.47
2018-06-29T18:06:15.567Z,15.70
2018-06-29T18:08:44.755Z,15.27
2018-06-29T18:11:14.233Z,10.77
2018-06-29T18:13:43.206Z,9.50
2018-06-29T18:16:12.046Z,9.27
2018-06-29T18:18:41.324Z,9.30
2018-06-29T18:21:10.122Z,9.17
2018-06-29T18:23:39.018Z,9.77
2018-06-29T18:26:07.882Z,8.60
2018-06-29T18:28:36.776Z,9.77
2018-06-29T18:31:05.652Z,8.33
2018-06-29T18:33:34.994Z,9.93
2018-06-29T18:36:04.539Z,8.80
2018-06-29T18:38:33.941Z,9.80
2018-06-29T18:41:03.795Z,9.27
2018-06-29T18:43:32.747Z,8.83
2018-06-29T18:46:01.654Z,8.60
2018-06-29T18:48:30.508Z,9.30
2018-06-29T18:50:59.388Z,8.97
2018-06-29T18:53:28.708Z,8.40
2018-06-29T18:55:57.699Z,8.87
2018-06-29T18:58:26.604Z,9.10
2018-06-29T19:00:55.662Z,8.30
2018-06-29T19:03:24.547Z,8.50
2018-06-29T19:05:53.463Z,8.87
2018-06-29T19:08:22.323Z,8.30
2018-06-29T19:10:51.789Z,9.10
2018-06-29T19:13:21.472Z,7.93
2018-06-29T19:15:50.645Z,8.80
2018-06-29T19:18:19.704Z,8.57
2018-06-29T19:20:48.667Z,9.40
2018-06-29T19:23:17.778Z,7.87
2018-06-29T19:25:47.054Z,7.90
2018-06-29T19:28:16.943Z,8.70
2018-06-29T19:30:46.988Z,9.50
2018-06-29T19:33:15.971Z,9.00
2018-06-29T19:35:45.565Z,8.87
2018-06-29T19:38:14.598Z,9.23
2018-06-29T19:40:44.381Z,9.80
2018-06-29T19:43:14.593Z,8.93
2018-06-29T19:45:43.497Z,10.60
2018-06-29T19:48:12.399Z,9.17
2018-06-29T19:50:41.692Z,9.50
2018-06-29T19:53:11.013Z,9.17
2018-06-29T19:55:39.956Z,8.10
2018-06-29T19:58:08.930Z,8.27
2018-06-29T20:00:38.187Z,9.07
2018-06-29T20:03:07.650Z,9.47
2018-06-29T20:05:36.508Z,9.40
2018-06-29T20:08:05.821Z,7.83
2018-06-29T20:10:34.807Z,8.67
2018-06-29T20:13:04.730Z,10.30
2018-06-29T20:15:33.973Z,9.53
2018-06-29T20:18:03.292Z,9.93
2018-06-29T20:20:32.681Z,8.47
2018-06-29T20:23:01.703Z,8.57
2018-06-29T20:25:30.951Z,9.43
2018-06-29T20:27:59.802Z,8.87
2018-06-29T20:30:28.659Z,8.83
2018-06-29T20:32:58.691Z,9.33
2018-06-29T20:35:28.032Z,10.97
2018-06-29T20:37:57.187Z,10.43
2018-06-29T20:40:25.990Z,14.00
2018-06-29T20:42:54.848Z,9.63
2018-06-29T20:45:23.688Z,11.50
2018-06-29T20:47:52.580Z,17.37
2018-06-29T20:50:21.434Z,52.80
2018-06-29T20:52:50.324Z,20.27
2018-06-29T20:55:19.180Z,10.93
2018-06-29T20:57:48.943Z,14.00
2018-06-29T21:00:17.830Z,10.97
2018-06-29T21:02:46.688Z,22.80
2018-06-29T21:05:15.516Z,12.90
2018-06-29T21:07:44.385Z,13.90
2018-06-29T21:10:13.263Z,11.20
2018-06-29T21:12:42.115Z,14.43
2018-06-29T21:15:10.999Z,16.33
2018-06-29T21:17:39.921Z,11.57
2018-06-29T21:20:08.788Z,9.80
2018-06-29T21:22:37.688Z,19.37
2018-06-29T21:25:06.673Z,11.60
2018-06-29T21:27:35.560Z,8.97
2018-06-29T21:30:05.274Z,9.40
2018-06-29T21:32:34.151Z,11.73
2018-06-29T21:35:03.242Z,9.60
2018-06-29T21:37:32.110Z,9.70
2018-06-29T21:40:00.906Z,8.70
2018-06-29T21:42:29.893Z,8.50
2018-06-29T21:44:58.656Z,8.37
2018-06-29T21:47:27.619Z,8.03
2018-06-29T21:49:56.768Z,7.60
2018-06-29T21:52:26.179Z,6.87
2018-06-29T21:54:55.127Z,8.30
2018-06-29T21:57:23.976Z,7.57
2018-06-29T21:59:52.851Z,6.50
2018-06-29T22:02:21.829Z,7.77
2018-06-29T22:04:50.867Z,7.33
2018-06-29T22:07:19.687Z,6.70
2018-06-29T22:09:49.015Z,6.17
2018-06-29T22:12:18.433Z,5.70
2018-06-29T22:14:47.448Z,5.83
2018-06-29T22:17:16.332Z,6.13
2018-06-29T22:19:45.799Z,6.50
2018-06-29T22:22:15.016Z,6.77
2018-06-29T22:24:44.119Z,7.20
2018-06-29T22:27:13.272Z,6.73
2018-06-29T22:29:42.246Z,7.90
2018-06-29T22:32:11.098Z,5.70
2018-06-29T22:34:40.235Z,7.80
2018-06-29T22:37:09.200Z,5.97
2018-06-29T22:39:38.552Z,5.90
2018-06-29T22:42:07.489Z,7.10
2018-06-29T22:44:36.578Z,6.83
2018-06-29T22:47:05.584Z,6.00
2018-06-29T22:49:34.436Z,6.63
2018-06-29T22:52:03.448Z,6.23
2018-06-29T22:54:32.295Z,5.90
2018-06-29T22:57:01.223Z,5.80
2018-06-29T22:59:30.477Z,5.60
2018-06-29T23:02:00.397Z,7.13
2018-06-29T23:04:29.333Z,6.70
2018-06-29T23:06:58.336Z,6.53
2018-06-29T23:09:27.767Z,6.80
2018-06-29T23:11:56.679Z,6.10
2018-06-29T23:14:26.043Z,6.83
2018-06-29T23:16:55.178Z,6.30
2018-06-29T23:19:24.336Z,7.00
2018-06-29T23:21:53.572Z,6.40
2018-06-29T23:24:23.322Z,6.50
2018-06-29T23:26:52.225Z,6.57
2018-06-29T23:29:21.620Z,6.20
2018-06-29T23:31:50.780Z,6.17
2018-06-29T23:34:20.285Z,6.67
2018-06-29T23:36:52.367Z,7.20
2018-06-29T23:39:21.556Z,6.90
2018-06-29T23:41:50.570Z,7.00
2018-06-29T23:44:19.476Z,7.33
2018-06-29T23:46:49.132Z,7.07
2018-06-29T23:49:18.198Z,7.43
2018-06-29T23:51:47.432Z,6.73
2018-06-29T23:54:16.809Z,7.83
2018-06-29T23:56:45.770Z,7.33
2018-06-29T23:59:14.622Z,7.77
